sensor_id;sensor_type;location;lat;lon;timestamp;temperature;humidity
21762;DHT22;11203;50.870;20.682;2023-02-02T13:24:26;2.00;1.00
21762;DHT22;11203;50.870;20.682;2023-02-02T13:27:01;2.20;99.90
21762;DHT22;11203;50.870;20.682;2023-02-02T13:29:57;2.20;99.90
21762;DHT22;11203;50.870;20.682;2023-02-02T13:32:35;2.10;99.90
21762;DHT22;11203;50.870;20.682;2023-02-02T13:37:49;2.10;99.90
21762;DHT22;11203;50.870;20.682;2023-02-02T13:40:37;2.10;99.90
21762;DHT22;11203;50.870;20.682;2023-02-02T13:43:14;2.10;99.90
21762;DHT22;11203;50.870;20.682;2023-02-02T14:00:34;2.30;99.90
21762;DHT22;11203;50.870;20.682;2023-02-02T14:03:04;2.30;1.00
21762;DHT22;11203;50.870;20.682;2023-02-02T14:06:23;2.40;1.00
21762;DHT22;11203;50.870;20.682;2023-02-02T14:09:00;2.30;1.00
21762;DHT22;11203;50.870;20.682;2023-02-02T14:11:33;2.30;1.00
21762;DHT22;11203;50.870;20.682;2023-02-02T14:14:14;2.40;99.90
21762;DHT22;11203;50.870;20.682;2023-02-02T14:19:57;2.40;99.90
21762;DHT22;11203;50.870;20.682;2023-02-02T14:22:48;2.50;1.00
21762;DHT22;11203;50.870;20.682;2023-02-02T14:28:00;2.50;1.00
21762;DHT22;11203;50.870;20.682;2023-02-02T14:30:33;2.50;1.00
21762;DHT22;11203;50.870;20.682;2023-02-02T14:33:38;2.50;1.00
21762;DHT22;11203;50.870;20.682;2023-02-02T14:36:10;2.50;1.00
21762;DHT22;11203;50.870;20.682;2023-02-02T14:38:45;2.40;1.00
21762;DHT22;11203;50.870;20.682;2023-02-02T14:44:15;2.40;1.00
21762;DHT22;11203;50.870;20.682;2023-02-02T14:46:41;2.40;1.00
21762;DHT22;11203;50.870;20.682;2023-02-02T14:49:18;2.40;1.00
21762;DHT22;11203;50.870;20.682;2023-02-02T14:51:58;2.40;71.00
21762;DHT22;11203;50.870;20.682;2023-02-02T14:54:36;2.30;99.90
21762;DHT22;11203;50.870;20.682;2023-02-02T14:59:51;2.40;1.00
21762;DHT22;11203;50.870;20.682;2023-02-02T15:02:32;2.40;1.00
21762;DHT22;11203;50.870;20.682;2023-02-02T15:08:24;2.30;1.00
21762;DHT22;11203;50.870;20.682;2023-02-02T15:13:24;1.90;9.70
21762;DHT22;11203;50.870;20.682;2023-02-02T15:16:02;1.70;64.80
21762;DHT22;11203;50.870;20.682;2023-02-02T15:18:42;1.60;1.00
21762;DHT22;11203;50.870;20.682;2023-02-02T15:21:14;1.60;1.00
21762;DHT22;11203;50.870;20.682;2023-02-02T15:23:44;1.60;1.00
21762;DHT22;11203;50.870;20.682;2023-02-02T15:28:58;1.50;1.00
21762;DHT22;11203;50.870;20.682;2023-02-02T15:31:44;1.50;1.00
21762;DHT22;11203;50.870;20.682;2023-02-02T15:34:16;1.50;1.00
21762;DHT22;11203;50.870;20.682;2023-02-02T15:36:50;1.30;1.00
21762;DHT22;11203;50.870;20.682;2023-02-02T15:39:37;1.20;1.00
21762;DHT22;11203;50.870;20.682;2023-02-02T15:42:20;1.10;1.00
21762;DHT22;11203;50.870;20.682;2023-02-02T15:47:55;1.00;99.90
21762;DHT22;11203;50.870;20.682;2023-02-02T15:50:22;1.10;99.90
21762;DHT22;11203;50.870;20.682;2023-02-02T15:52:50;1.10;99.90
21762;DHT22;11203;50.870;20.682;2023-02-02T15:55:32;1.10;99.90
21762;DHT22;11203;50.870;20.682;2023-02-02T15:58:00;1.10;99.90
21762;DHT22;11203;50.870;20.682;2023-02-02T16:00:28;1.20;99.90
21762;DHT22;11203;50.870;20.682;2023-02-02T16:03:11;1.20;51.30
21762;DHT22;11203;50.870;20.682;2023-02-02T16:05:40;1.20;10.80
21762;DHT22;11203;50.870;20.682;2023-02-02T16:08:18;1.30;25.20
21762;DHT22;11203;50.870;20.682;2023-02-02T16:10:48;1.20;99.90
21762;DHT22;11203;50.870;20.682;2023-02-02T16:13:24;1.40;3.00
21762;DHT22;11203;50.870;20.682;2023-02-02T16:15:57;1.30;66.10
21762;DHT22;11203;50.870;20.682;2023-02-02T16:18:25;1.40;35.30
21762;DHT22;11203;50.870;20.682;2023-02-02T16:20:52;1.30;95.30
21762;DHT22;11203;50.870;20.682;2023-02-02T16:23:28;1.30;99.90
21762;DHT22;11203;50.870;20.682;2023-02-02T16:25:58;1.30;99.90
21762;DHT22;11203;50.870;20.682;2023-02-02T16:28:25;1.30;99.90
21762;DHT22;11203;50.870;20.682;2023-02-02T16:30:51;1.30;99.90
21762;DHT22;11203;50.870;20.682;2023-02-02T16:33:39;1.30;99.90
21762;DHT22;11203;50.870;20.682;2023-02-02T16:36:21;1.40;99.90
21762;DHT22;11203;50.870;20.682;2023-02-02T16:38:51;1.40;99.90
21762;DHT22;11203;50.870;20.682;2023-02-02T16:44:26;1.40;99.90
21762;DHT22;11203;50.870;20.682;2023-02-02T16:46:54;1.40;99.90
21762;DHT22;11203;50.870;20.682;2023-02-02T16:49:23;1.40;99.90
21762;DHT22;11203;50.870;20.682;2023-02-02T16:52:14;1.50;99.90
21762;DHT22;11203;50.870;20.682;2023-02-02T16:54:53;1.50;99.90
21762;DHT22;11203;50.870;20.682;2023-02-02T16:57:25;1.50;46.00
21762;DHT22;11203;50.870;20.682;2023-02-02T16:59:55;1.40;76.60
21762;DHT22;11203;50.870;20.682;2023-02-02T17:02:29;1.50;52.90
21762;DHT22;11203;50.870;20.682;2023-02-02T17:07:53;1.50;1.00
21762;DHT22;11203;50.870;20.682;2023-02-02T17:10:34;1.50;1.00
21762;DHT22;11203;50.870;20.682;2023-02-02T17:13:34;1.40;1.00
21762;DHT22;11203;50.870;20.682;2023-02-02T17:16:01;1.30;1.00
21762;DHT22;11203;50.870;20.682;2023-02-02T17:18:28;1.30;1.00
21762;DHT22;11203;50.870;20.682;2023-02-02T17:20:56;1.30;1.00
21762;DHT22;11203;50.870;20.682;2023-02-02T17:23:27;1.40;99.50
21762;DHT22;11203;50.870;20.682;2023-02-02T17:25:54;1.30;99.90
21762;DHT22;11203;50.870;20.682;2023-02-02T17:28:23;1.30;99.90
21762;DHT22;11203;50.870;20.682;2023-02-02T17:31:02;1.20;99.90
21762;DHT22;11203;50.870;20.682;2023-02-02T17:33:33;1.30;99.90
21762;DHT22;11203;50.870;20.682;2023-02-02T17:36:01;1.30;99.90
21762;DHT22;11203;50.870;20.682;2023-02-02T17:38:27;1.30;99.90
21762;DHT22;11203;50.870;20.682;2023-02-02T17:40:55;1.30;99.90
21762;DHT22;11203;50.870;20.682;2023-02-02T17:43:23;1.30;55.00
21762;DHT22;11203;50.870;20.682;2023-02-02T17:45:50;1.30;30.40
21762;DHT22;11203;50.870;20.682;2023-02-02T17:48:16;1.30;56.80
21762;DHT22;11203;50.870;20.682;2023-02-02T17:50:42;1.40;1.00
21762;DHT22;11203;50.870;20.682;2023-02-02T17:53:11;1.20;1.00
21762;DHT22;11203;50.870;20.682;2023-02-02T17:55:40;1.40;1.00
21762;DHT22;11203;50.870;20.682;2023-02-02T17:58:10;1.30;1.00
21762;DHT22;11203;50.870;20.682;2023-02-02T18:00:39;1.40;1.00
21762;DHT22;11203;50.870;20.682;2023-02-02T18:03:20;1.40;1.00
21762;DHT22;11203;50.870;20.682;2023-02-02T18:05:48;1.40;1.00
21762;DHT22;11203;50.870;20.682;2023-02-02T18:08:15;1.30;1.00
21762;DHT22;11203;50.870;20.682;2023-02-02T18:10:41;1.30;1.00
21762;DHT22;11203;50.870;20.682;2023-02-02T18:13:13;1.30;1.00
21762;DHT22;11203;50.870;20.682;2023-02-02T18:15:44;1.30;1.00
21762;DHT22;11203;50.870;20.682;2023-02-02T18:18:10;1.30;99.90
21762;DHT22;11203;50.870;20.682;2023-02-02T18:20:44;1.30;99.90
21762;DHT22;11203;50.870;20.682;2023-02-02T18:23:12;1.30;1.00
21762;DHT22;11203;50.870;20.682;2023-02-02T18:25:39;1.30;1.00
21762;DHT22;11203;50.870;20.682;2023-02-02T18:28:06;1.20;1.00
21762;DHT22;11203;50.870;20.682;2023-02-02T18:30:33;1.20;1.00
21762;DHT22;11203;50.870;20.682;2023-02-02T18:32:59;1.10;35.10
21762;DHT22;11203;50.870;20.682;2023-02-02T18:35:26;1.10;1.00
21762;DHT22;11203;50.870;20.682;2023-02-02T18:37:53;1.10;1.00
21762;DHT22;11203;50.870;20.682;2023-02-02T18:40:20;1.00;1.00
21762;DHT22;11203;50.870;20.682;2023-02-02T18:42:46;1.00;1.00
21762;DHT22;11203;50.870;20.682;2023-02-02T18:45:13;1.00;1.00
21762;DHT22;11203;50.870;20.682;2023-02-02T18:47:39;1.00;1.00
21762;DHT22;11203;50.870;20.682;2023-02-02T18:50:05;1.10;1.00
21762;DHT22;11203;50.870;20.682;2023-02-02T18:52:33;1.10;1.00
21762;DHT22;11203;50.870;20.682;2023-02-02T18:54:59;1.10;1.00
21762;DHT22;11203;50.870;20.682;2023-02-02T18:57:27;1.10;99.90
21762;DHT22;11203;50.870;20.682;2023-02-02T18:59:54;1.10;1.00
21762;DHT22;11203;50.870;20.682;2023-02-02T19:02:20;1.10;1.00
21762;DHT22;11203;50.870;20.682;2023-02-02T19:04:47;1.10;37.20
21762;DHT22;11203;50.870;20.682;2023-02-02T19:07:32;1.10;1.00
21762;DHT22;11203;50.870;20.682;2023-02-02T19:10:17;1.10;1.00
21762;DHT22;11203;50.870;20.682;2023-02-02T19:13:09;1.10;1.00
21762;DHT22;11203;50.870;20.682;2023-02-02T19:15:48;1.10;1.00
21762;DHT22;11203;50.870;20.682;2023-02-02T19:18:17;1.10;1.00
21762;DHT22;11203;50.870;20.682;2023-02-02T19:20:46;1.10;62.80
21762;DHT22;11203;50.870;20.682;2023-02-02T19:23:16;1.10;99.90
21762;DHT22;11203;50.870;20.682;2023-02-02T19:25:47;1.00;99.90
21762;DHT22;11203;50.870;20.682;2023-02-02T19:28:21;1.10;99.90
21762;DHT22;11203;50.870;20.682;2023-02-02T19:30:55;1.10;99.90
21762;DHT22;11203;50.870;20.682;2023-02-02T19:33:50;1.10;99.90
21762;DHT22;11203;50.870;20.682;2023-02-02T19:36:23;1.10;99.90
21762;DHT22;11203;50.870;20.682;2023-02-02T19:39:00;1.10;1.00
21762;DHT22;11203;50.870;20.682;2023-02-02T19:41:32;1.20;99.90
21762;DHT22;11203;50.870;20.682;2023-02-02T19:44:09;1.10;99.90
21762;DHT22;11203;50.870;20.682;2023-02-02T19:46:43;1.20;99.90
21762;DHT22;11203;50.870;20.682;2023-02-02T19:49:16;1.20;99.90
21762;DHT22;11203;50.870;20.682;2023-02-02T19:51:53;1.20;73.80
21762;DHT22;11203;50.870;20.682;2023-02-02T19:54:40;1.20;1.00
21762;DHT22;11203;50.870;20.682;2023-02-02T19:57:34;1.20;1.00
21762;DHT22;11203;50.870;20.682;2023-02-02T20:02:56;1.20;1.00
21762;DHT22;11203;50.870;20.682;2023-02-02T20:05:36;1.20;1.00
21762;DHT22;11203;50.870;20.682;2023-02-02T20:13:58;1.20;1.00
21762;DHT22;11203;50.870;20.682;2023-02-02T20:16:36;1.20;1.00
21762;DHT22;11203;50.870;20.682;2023-02-02T20:19:23;1.20;1.00
21762;DHT22;11203;50.870;20.682;2023-02-02T20:21:52;1.20;99.90
21762;DHT22;11203;50.870;20.682;2023-02-02T20:27:15;1.20;99.90
21762;DHT22;11203;50.870;20.682;2023-02-02T20:29:46;1.20;99.90
21762;DHT22;11203;50.870;20.682;2023-02-02T20:32:37;1.30;99.90
21762;DHT22;11203;50.870;20.682;2023-02-02T20:35:40;1.20;1.00
21762;DHT22;11203;50.870;20.682;2023-02-02T20:38:30;1.20;1.00
21762;DHT22;11203;50.870;20.682;2023-02-02T20:41:01;1.10;99.90
21762;DHT22;11203;50.870;20.682;2023-02-02T20:43:29;1.00;1.00
21762;DHT22;11203;50.870;20.682;2023-02-02T20:45:55;0.90;99.90
21762;DHT22;11203;50.870;20.682;2023-02-02T20:48:21;0.90;99.90
21762;DHT22;11203;50.870;20.682;2023-02-02T20:50:49;0.90;1.00
21762;DHT22;11203;50.870;20.682;2023-02-02T20:53:15;0.80;1.00
21762;DHT22;11203;50.870;20.682;2023-02-02T20:55:42;0.80;1.00
21762;DHT22;11203;50.870;20.682;2023-02-02T20:58:09;0.80;1.00
21762;DHT22;11203;50.870;20.682;2023-02-02T21:04:31;1.00;99.90
21762;DHT22;11203;50.870;20.682;2023-02-02T21:06:59;1.00;1.00
21762;DHT22;11203;50.870;20.682;2023-02-02T21:09:25;0.90;1.00
21762;DHT22;11203;50.870;20.682;2023-02-02T21:11:52;1.00;1.00
21762;DHT22;11203;50.870;20.682;2023-02-02T21:14:18;1.00;99.90
21762;DHT22;11203;50.870;20.682;2023-02-02T21:16:44;1.00;99.90
21762;DHT22;11203;50.870;20.682;2023-02-02T21:19:11;1.10;99.90
21762;DHT22;11203;50.870;20.682;2023-02-02T21:21:37;1.00;99.90
21762;DHT22;11203;50.870;20.682;2023-02-02T21:24:06;1.00;99.90
21762;DHT22;11203;50.870;20.682;2023-02-02T21:30:31;1.00;99.90
21762;DHT22;11203;50.870;20.682;2023-02-02T21:32:58;1.00;1.00
21762;DHT22;11203;50.870;20.682;2023-02-02T21:35:24;1.00;1.00
21762;DHT22;11203;50.870;20.682;2023-02-02T21:37:55;1.00;1.00
21762;DHT22;11203;50.870;20.682;2023-02-02T21:40:29;1.00;1.00
21762;DHT22;11203;50.870;20.682;2023-02-02T21:42:59;1.00;1.00
21762;DHT22;11203;50.870;20.682;2023-02-02T21:45:34;1.00;1.00
21762;DHT22;11203;50.870;20.682;2023-02-02T21:48:18;1.00;1.00
21762;DHT22;11203;50.870;20.682;2023-02-02T21:50:51;0.90;99.90
21762;DHT22;11203;50.870;20.682;2023-02-02T21:53:23;0.90;99.90
21762;DHT22;11203;50.870;20.682;2023-02-02T21:55:55;0.90;99.90
21762;DHT22;11203;50.870;20.682;2023-02-02T21:58:30;0.90;99.90
21762;DHT22;11203;50.870;20.682;2023-02-02T22:04:59;0.90;99.90
21762;DHT22;11203;50.870;20.682;2023-02-02T22:07:27;0.90;1.00
21762;DHT22;11203;50.870;20.682;2023-02-02T22:09:54;0.90;1.00
21762;DHT22;11203;50.870;20.682;2023-02-02T22:12:22;0.90;1.00
21762;DHT22;11203;50.870;20.682;2023-02-02T22:14:51;0.90;1.00
21762;DHT22;11203;50.870;20.682;2023-02-02T22:23:23;1.00;99.90
21762;DHT22;11203;50.870;20.682;2023-02-02T22:25:56;1.00;1.00
21762;DHT22;11203;50.870;20.682;2023-02-02T22:28:36;1.00;1.00
21762;DHT22;11203;50.870;20.682;2023-02-02T22:31:03;1.00;74.30
21762;DHT22;11203;50.870;20.682;2023-02-02T22:33:30;1.00;18.40
21762;DHT22;11203;50.870;20.682;2023-02-02T22:35:56;1.00;1.00
21762;DHT22;11203;50.870;20.682;2023-02-02T22:38:24;1.00;1.00
21762;DHT22;11203;50.870;20.682;2023-02-02T22:40:51;0.90;1.00
21762;DHT22;11203;50.870;20.682;2023-02-02T22:43:19;0.90;1.00
21762;DHT22;11203;50.870;20.682;2023-02-02T22:45:46;0.90;1.00
21762;DHT22;11203;50.870;20.682;2023-02-02T22:48:13;0.90;1.00
21762;DHT22;11203;50.870;20.682;2023-02-02T22:50:39;0.90;1.00
21762;DHT22;11203;50.870;20.682;2023-02-02T22:53:06;0.80;1.00
21762;DHT22;11203;50.870;20.682;2023-02-02T22:55:32;0.80;1.00
21762;DHT22;11203;50.870;20.682;2023-02-02T22:57:58;0.80;1.00
21762;DHT22;11203;50.870;20.682;2023-02-02T23:00:27;0.80;99.90
21762;DHT22;11203;50.870;20.682;2023-02-02T23:02:55;0.80;99.90
21762;DHT22;11203;50.870;20.682;2023-02-02T23:05:23;0.80;1.00
21762;DHT22;11203;50.870;20.682;2023-02-02T23:07:51;0.90;99.90
21762;DHT22;11203;50.870;20.682;2023-02-02T23:10:21;0.80;99.90
21762;DHT22;11203;50.870;20.682;2023-02-02T23:12:49;0.70;99.90
21762;DHT22;11203;50.870;20.682;2023-02-02T23:15:18;0.70;1.00
21762;DHT22;11203;50.870;20.682;2023-02-02T23:17:45;0.70;1.00
21762;DHT22;11203;50.870;20.682;2023-02-02T23:20:12;0.70;1.00
21762;DHT22;11203;50.870;20.682;2023-02-02T23:22:38;0.60;1.00
21762;DHT22;11203;50.870;20.682;2023-02-02T23:25:05;0.70;1.00
21762;DHT22;11203;50.870;20.682;2023-02-02T23:27:32;0.60;99.90
21762;DHT22;11203;50.870;20.682;2023-02-02T23:29:58;0.60;1.00
21762;DHT22;11203;50.870;20.682;2023-02-02T23:32:24;0.60;1.00
21762;DHT22;11203;50.870;20.682;2023-02-02T23:34:50;0.60;1.00
21762;DHT22;11203;50.870;20.682;2023-02-02T23:37:16;0.50;1.00
21762;DHT22;11203;50.870;20.682;2023-02-02T23:39:42;0.50;1.00
21762;DHT22;11203;50.870;20.682;2023-02-02T23:42:08;0.60;1.00
21762;DHT22;11203;50.870;20.682;2023-02-02T23:44:34;0.50;1.00
21762;DHT22;11203;50.870;20.682;2023-02-02T23:47:01;0.50;1.00
21762;DHT22;11203;50.870;20.682;2023-02-02T23:49:30;0.50;1.00
21762;DHT22;11203;50.870;20.682;2023-02-02T23:51:58;0.40;1.00
21762;DHT22;11203;50.870;20.682;2023-02-02T23:54:24;0.50;1.00
21762;DHT22;11203;50.870;20.682;2023-02-02T23:56:51;0.50;1.00
21762;DHT22;11203;50.870;20.682;2023-02-02T23:59:17;0.50;1.00
